sensor_id;sensor_type;location;lat;lon;timestamp;temperature;humidity
41668;DHT22;27356;50.920;5.350;2023-09-30T00:02:15;12.60;99.90
41668;DHT22;27356;50.920;5.350;2023-09-30T00:04:40;12.60;99.90
41668;DHT22;27356;50.920;5.350;2023-09-30T00:07:06;12.60;99.90
41668;DHT22;27356;50.920;5.350;2023-09-30T00:09:32;12.60;99.90
41668;DHT22;27356;50.920;5.350;2023-09-30T00:11:57;12.60;99.90
41668;DHT22;27356;50.920;5.350;2023-09-30T00:14:23;12.60;99.90
41668;DHT22;27356;50.920;5.350;2023-09-30T00:16:49;12.60;99.90
41668;DHT22;27356;50.920;5.350;2023-09-30T00:19:16;12.60;99.90
41668;DHT22;27356;50.920;5.350;2023-09-30T00:21:42;12.60;99.90
41668;DHT22;27356;50.920;5.350;2023-09-30T00:24:08;12.60;99.90
41668;DHT22;27356;50.920;5.350;2023-09-30T00:26:34;12.60;99.90
41668;DHT22;27356;50.920;5.350;2023-09-30T00:29:00;12.50;99.90
41668;DHT22;27356;50.920;5.350;2023-09-30T00:31:26;12.50;99.90
41668;DHT22;27356;50.920;5.350;2023-09-30T00:33:51;12.40;99.90
41668;DHT22;27356;50.920;5.350;2023-09-30T00:36:17;12.40;99.90
41668;DHT22;27356;50.920;5.350;2023-09-30T00:38:42;12.50;99.90
41668;DHT22;27356;50.920;5.350;2023-09-30T00:41:08;12.50;99.90
41668;DHT22;27356;50.920;5.350;2023-09-30T00:43:34;12.40;99.90
41668;DHT22;27356;50.920;5.350;2023-09-30T00:48:49;12.50;99.90
41668;DHT22;27356;50.920;5.350;2023-09-30T00:51:14;12.50;99.90
41668;DHT22;27356;50.920;5.350;2023-09-30T00:53:41;12.40;99.90
41668;DHT22;27356;50.920;5.350;2023-09-30T00:56:07;12.50;99.90
41668;DHT22;27356;50.920;5.350;2023-09-30T00:58:34;12.40;99.90
41668;DHT22;27356;50.920;5.350;2023-09-30T01:01:01;12.40;99.90
41668;DHT22;27356;50.920;5.350;2023-09-30T01:03:26;12.40;99.90
41668;DHT22;27356;50.920;5.350;2023-09-30T01:05:53;12.40;99.90
41668;DHT22;27356;50.920;5.350;2023-09-30T01:08:19;12.40;99.90
41668;DHT22;27356;50.920;5.350;2023-09-30T01:10:46;12.40;99.90
41668;DHT22;27356;50.920;5.350;2023-09-30T01:13:11;12.30;99.90
41668;DHT22;27356;50.920;5.350;2023-09-30T01:15:37;12.30;99.90
41668;DHT22;27356;50.920;5.350;2023-09-30T01:18:04;12.20;99.90
41668;DHT22;27356;50.920;5.350;2023-09-30T01:20:30;12.20;99.90
41668;DHT22;27356;50.920;5.350;2023-09-30T01:22:57;12.30;99.90
41668;DHT22;27356;50.920;5.350;2023-09-30T01:25:24;12.20;99.90
41668;DHT22;27356;50.920;5.350;2023-09-30T01:27:50;12.30;99.90
41668;DHT22;27356;50.920;5.350;2023-09-30T01:30:19;12.40;99.90
41668;DHT22;27356;50.920;5.350;2023-09-30T01:32:47;12.50;99.90
41668;DHT22;27356;50.920;5.350;2023-09-30T01:35:13;12.50;99.90
41668;DHT22;27356;50.920;5.350;2023-09-30T01:37:39;12.40;99.90
41668;DHT22;27356;50.920;5.350;2023-09-30T01:40:06;12.40;99.90
41668;DHT22;27356;50.920;5.350;2023-09-30T01:42:37;12.40;99.90
41668;DHT22;27356;50.920;5.350;2023-09-30T01:45:03;12.40;99.90
41668;DHT22;27356;50.920;5.350;2023-09-30T01:47:29;12.30;99.90
41668;DHT22;27356;50.920;5.350;2023-09-30T01:49:55;12.30;99.90
41668;DHT22;27356;50.920;5.350;2023-09-30T01:52:21;12.30;99.90
41668;DHT22;27356;50.920;5.350;2023-09-30T01:54:46;12.30;99.90
41668;DHT22;27356;50.920;5.350;2023-09-30T01:57:13;12.20;99.90
41668;DHT22;27356;50.920;5.350;2023-09-30T01:59:39;12.00;99.90
41668;DHT22;27356;50.920;5.350;2023-09-30T02:02:04;11.90;99.90
41668;DHT22;27356;50.920;5.350;2023-09-30T02:04:30;11.90;99.90
41668;DHT22;27356;50.920;5.350;2023-09-30T02:06:56;11.90;99.90
41668;DHT22;27356;50.920;5.350;2023-09-30T02:09:22;11.90;99.90
41668;DHT22;27356;50.920;5.350;2023-09-30T02:11:47;11.90;99.90
41668;DHT22;27356;50.920;5.350;2023-09-30T02:14:13;11.80;99.90
41668;DHT22;27356;50.920;5.350;2023-09-30T02:16:39;11.80;99.90
41668;DHT22;27356;50.920;5.350;2023-09-30T02:19:05;11.70;99.90
41668;DHT22;27356;50.920;5.350;2023-09-30T02:21:32;11.70;99.90
41668;DHT22;27356;50.920;5.350;2023-09-30T02:23:57;11.70;99.90
41668;DHT22;27356;50.920;5.350;2023-09-30T02:26:23;11.60;99.90
41668;DHT22;27356;50.920;5.350;2023-09-30T02:28:51;11.70;99.90
41668;DHT22;27356;50.920;5.350;2023-09-30T02:31:18;11.60;99.90
41668;DHT22;27356;50.920;5.350;2023-09-30T02:33:43;11.60;99.90
41668;DHT22;27356;50.920;5.350;2023-09-30T02:36:09;11.60;99.90
41668;DHT22;27356;50.920;5.350;2023-09-30T02:38:35;11.60;99.90
41668;DHT22;27356;50.920;5.350;2023-09-30T02:41:04;11.50;99.90
41668;DHT22;27356;50.920;5.350;2023-09-30T02:43:30;11.50;99.90
41668;DHT22;27356;50.920;5.350;2023-09-30T02:45:56;11.50;99.90
41668;DHT22;27356;50.920;5.350;2023-09-30T02:48:21;11.50;99.90
41668;DHT22;27356;50.920;5.350;2023-09-30T02:50:47;11.40;99.90
41668;DHT22;27356;50.920;5.350;2023-09-30T02:53:13;11.40;99.90
41668;DHT22;27356;50.920;5.350;2023-09-30T02:55:42;11.30;99.90
41668;DHT22;27356;50.920;5.350;2023-09-30T02:58:10;11.20;99.90
41668;DHT22;27356;50.920;5.350;2023-09-30T03:00:36;11.20;99.90
41668;DHT22;27356;50.920;5.350;2023-09-30T03:03:03;11.20;99.90
41668;DHT22;27356;50.920;5.350;2023-09-30T03:05:30;11.10;99.90
41668;DHT22;27356;50.920;5.350;2023-09-30T03:07:59;11.10;99.90
41668;DHT22;27356;50.920;5.350;2023-09-30T03:10:25;11.10;99.90
41668;DHT22;27356;50.920;5.350;2023-09-30T03:12:53;11.30;99.90
41668;DHT22;27356;50.920;5.350;2023-09-30T03:15:19;11.20;99.90
41668;DHT22;27356;50.920;5.350;2023-09-30T03:17:45;11.20;99.90
41668;DHT22;27356;50.920;5.350;2023-09-30T03:20:11;11.30;99.90
41668;DHT22;27356;50.920;5.350;2023-09-30T03:22:44;11.30;99.90
41668;DHT22;27356;50.920;5.350;2023-09-30T03:25:12;11.40;99.90
41668;DHT22;27356;50.920;5.350;2023-09-30T03:27:40;11.40;99.90
41668;DHT22;27356;50.920;5.350;2023-09-30T03:30:08;11.50;99.90
41668;DHT22;27356;50.920;5.350;2023-09-30T03:32:34;11.40;99.90
41668;DHT22;27356;50.920;5.350;2023-09-30T03:35:10;11.50;99.90
41668;DHT22;27356;50.920;5.350;2023-09-30T03:37:40;11.50;99.90
41668;DHT22;27356;50.920;5.350;2023-09-30T03:40:07;11.50;99.90
41668;DHT22;27356;50.920;5.350;2023-09-30T03:42:42;11.50;99.90
41668;DHT22;27356;50.920;5.350;2023-09-30T03:45:10;11.40;99.90
41668;DHT22;27356;50.920;5.350;2023-09-30T03:47:37;11.40;99.90
41668;DHT22;27356;50.920;5.350;2023-09-30T03:50:03;11.40;99.90
41668;DHT22;27356;50.920;5.350;2023-09-30T03:52:33;11.40;99.90
41668;DHT22;27356;50.920;5.350;2023-09-30T03:55:00;11.30;99.90
41668;DHT22;27356;50.920;5.350;2023-09-30T03:57:29;11.30;99.90
41668;DHT22;27356;50.920;5.350;2023-09-30T03:59:54;11.30;99.90
41668;DHT22;27356;50.920;5.350;2023-09-30T04:02:20;11.30;99.90
41668;DHT22;27356;50.920;5.350;2023-09-30T04:04:46;11.30;99.90
41668;DHT22;27356;50.920;5.350;2023-09-30T04:07:12;11.30;99.90
41668;DHT22;27356;50.920;5.350;2023-09-30T04:09:38;11.20;99.90
41668;DHT22;27356;50.920;5.350;2023-09-30T04:12:05;11.20;99.90
41668;DHT22;27356;50.920;5.350;2023-09-30T04:14:31;11.20;99.90
41668;DHT22;27356;50.920;5.350;2023-09-30T04:16:56;11.10;99.90
41668;DHT22;27356;50.920;5.350;2023-09-30T04:19:23;11.20;99.90
41668;DHT22;27356;50.920;5.350;2023-09-30T04:21:49;11.10;99.90
41668;DHT22;27356;50.920;5.350;2023-09-30T04:24:14;11.20;99.90
41668;DHT22;27356;50.920;5.350;2023-09-30T04:26:40;11.20;99.90
41668;DHT22;27356;50.920;5.350;2023-09-30T04:29:07;11.20;99.90
41668;DHT22;27356;50.920;5.350;2023-09-30T04:31:37;11.20;99.90
41668;DHT22;27356;50.920;5.350;2023-09-30T04:34:04;11.20;99.90
41668;DHT22;27356;50.920;5.350;2023-09-30T04:36:31;11.20;99.90
41668;DHT22;27356;50.920;5.350;2023-09-30T04:38:57;11.10;99.90
41668;DHT22;27356;50.920;5.350;2023-09-30T04:41:26;11.00;99.90
41668;DHT22;27356;50.920;5.350;2023-09-30T04:43:52;11.00;99.90
41668;DHT22;27356;50.920;5.350;2023-09-30T04:46:18;11.10;99.90
41668;DHT22;27356;50.920;5.350;2023-09-30T04:48:46;11.10;99.90
41668;DHT22;27356;50.920;5.350;2023-09-30T04:51:14;11.10;99.90
41668;DHT22;27356;50.920;5.350;2023-09-30T04:53:43;11.20;99.90
41668;DHT22;27356;50.920;5.350;2023-09-30T04:56:10;11.20;99.90
41668;DHT22;27356;50.920;5.350;2023-09-30T04:58:36;11.20;99.90
41668;DHT22;27356;50.920;5.350;2023-09-30T05:01:01;11.20;99.90
41668;DHT22;27356;50.920;5.350;2023-09-30T05:03:27;11.10;99.90
41668;DHT22;27356;50.920;5.350;2023-09-30T05:05:53;11.00;99.90
41668;DHT22;27356;50.920;5.350;2023-09-30T05:08:22;11.00;99.90
41668;DHT22;27356;50.920;5.350;2023-09-30T05:10:47;11.20;99.90
41668;DHT22;27356;50.920;5.350;2023-09-30T05:13:13;11.20;99.90
41668;DHT22;27356;50.920;5.350;2023-09-30T05:15:39;11.00;99.90
41668;DHT22;27356;50.920;5.350;2023-09-30T05:18:07;11.10;99.90
41668;DHT22;27356;50.920;5.350;2023-09-30T05:20:35;11.20;99.90
41668;DHT22;27356;50.920;5.350;2023-09-30T05:23:02;11.10;99.90
41668;DHT22;27356;50.920;5.350;2023-09-30T05:25:28;11.00;99.90
41668;DHT22;27356;50.920;5.350;2023-09-30T05:27:54;10.90;99.90
41668;DHT22;27356;50.920;5.350;2023-09-30T05:30:20;10.90;99.90
41668;DHT22;27356;50.920;5.350;2023-09-30T05:32:46;10.90;99.90
41668;DHT22;27356;50.920;5.350;2023-09-30T05:35:12;10.90;99.90
41668;DHT22;27356;50.920;5.350;2023-09-30T05:37:39;10.80;99.90
41668;DHT22;27356;50.920;5.350;2023-09-30T05:40:06;10.80;99.90
41668;DHT22;27356;50.920;5.350;2023-09-30T05:42:44;10.80;99.90
41668;DHT22;27356;50.920;5.350;2023-09-30T05:45:10;10.80;99.90
41668;DHT22;27356;50.920;5.350;2023-09-30T05:47:38;10.70;99.90
41668;DHT22;27356;50.920;5.350;2023-09-30T05:50:06;10.70;99.90
41668;DHT22;27356;50.920;5.350;2023-09-30T05:52:33;10.60;99.90
41668;DHT22;27356;50.920;5.350;2023-09-30T05:54:59;10.60;99.90
41668;DHT22;27356;50.920;5.350;2023-09-30T05:57:28;10.60;99.90
41668;DHT22;27356;50.920;5.350;2023-09-30T05:59:54;10.60;99.90
41668;DHT22;27356;50.920;5.350;2023-09-30T06:02:19;10.70;99.90
41668;DHT22;27356;50.920;5.350;2023-09-30T06:04:45;10.70;99.90
41668;DHT22;27356;50.920;5.350;2023-09-30T06:07:12;10.70;99.90
41668;DHT22;27356;50.920;5.350;2023-09-30T06:09:38;10.70;99.90
41668;DHT22;27356;50.920;5.350;2023-09-30T06:12:03;10.90;99.90
41668;DHT22;27356;50.920;5.350;2023-09-30T06:14:32;11.00;99.90
41668;DHT22;27356;50.920;5.350;2023-09-30T06:16:57;11.10;99.90
41668;DHT22;27356;50.920;5.350;2023-09-30T06:19:23;11.20;99.90
41668;DHT22;27356;50.920;5.350;2023-09-30T06:21:51;11.50;99.90
41668;DHT22;27356;50.920;5.350;2023-09-30T06:24:17;11.80;99.90
41668;DHT22;27356;50.920;5.350;2023-09-30T06:26:45;12.30;99.90
41668;DHT22;27356;50.920;5.350;2023-09-30T06:29:11;12.40;99.90
41668;DHT22;27356;50.920;5.350;2023-09-30T06:31:37;12.70;99.90
41668;DHT22;27356;50.920;5.350;2023-09-30T06:34:03;12.80;99.90
41668;DHT22;27356;50.920;5.350;2023-09-30T06:36:33;13.30;99.90
41668;DHT22;27356;50.920;5.350;2023-09-30T06:38:59;13.70;99.90
41668;DHT22;27356;50.920;5.350;2023-09-30T06:41:24;14.00;99.90
41668;DHT22;27356;50.920;5.350;2023-09-30T06:43:51;14.20;99.90
41668;DHT22;27356;50.920;5.350;2023-09-30T06:46:17;14.60;99.90
41668;DHT22;27356;50.920;5.350;2023-09-30T06:48:43;14.70;99.90
41668;DHT22;27356;50.920;5.350;2023-09-30T06:51:13;14.80;99.90
41668;DHT22;27356;50.920;5.350;2023-09-30T06:53:40;14.80;99.90
41668;DHT22;27356;50.920;5.350;2023-09-30T06:56:06;15.10;99.90
41668;DHT22;27356;50.920;5.350;2023-09-30T06:58:32;15.10;99.90
41668;DHT22;27356;50.920;5.350;2023-09-30T07:00:58;14.80;99.90
41668;DHT22;27356;50.920;5.350;2023-09-30T07:03:24;14.70;99.90
41668;DHT22;27356;50.920;5.350;2023-09-30T07:05:50;14.80;99.90
41668;DHT22;27356;50.920;5.350;2023-09-30T07:08:19;14.50;99.90
41668;DHT22;27356;50.920;5.350;2023-09-30T07:10:46;14.40;99.90
41668;DHT22;27356;50.920;5.350;2023-09-30T07:13:15;14.50;99.90
41668;DHT22;27356;50.920;5.350;2023-09-30T07:15:41;14.60;99.90
41668;DHT22;27356;50.920;5.350;2023-09-30T07:18:07;14.40;99.90
41668;DHT22;27356;50.920;5.350;2023-09-30T07:20:33;14.30;99.90
41668;DHT22;27356;50.920;5.350;2023-09-30T07:22:59;14.30;99.90
41668;DHT22;27356;50.920;5.350;2023-09-30T07:25:26;14.50;99.90
41668;DHT22;27356;50.920;5.350;2023-09-30T07:27:52;14.60;99.90
41668;DHT22;27356;50.920;5.350;2023-09-30T07:30:18;14.50;99.90
41668;DHT22;27356;50.920;5.350;2023-09-30T07:32:44;14.40;99.90
41668;DHT22;27356;50.920;5.350;2023-09-30T07:35:12;14.30;99.90
41668;DHT22;27356;50.920;5.350;2023-09-30T07:37:41;14.30;99.90
41668;DHT22;27356;50.920;5.350;2023-09-30T07:40:08;14.40;99.90
41668;DHT22;27356;50.920;5.350;2023-09-30T07:42:33;14.40;99.90
41668;DHT22;27356;50.920;5.350;2023-09-30T07:45:00;14.50;99.90
41668;DHT22;27356;50.920;5.350;2023-09-30T07:47:26;14.40;99.90
41668;DHT22;27356;50.920;5.350;2023-09-30T07:49:52;14.50;99.90
41668;DHT22;27356;50.920;5.350;2023-09-30T07:52:18;14.70;99.90
41668;DHT22;27356;50.920;5.350;2023-09-30T07:54:43;14.80;99.90
41668;DHT22;27356;50.920;5.350;2023-09-30T07:57:09;14.90;99.90
41668;DHT22;27356;50.920;5.350;2023-09-30T07:59:35;14.90;99.90
41668;DHT22;27356;50.920;5.350;2023-09-30T08:02:01;15.00;99.90
41668;DHT22;27356;50.920;5.350;2023-09-30T08:04:30;15.20;99.90
41668;DHT22;27356;50.920;5.350;2023-09-30T08:06:56;15.40;99.90
41668;DHT22;27356;50.920;5.350;2023-09-30T08:09:22;15.40;99.90
41668;DHT22;27356;50.920;5.350;2023-09-30T08:11:53;15.60;99.90
41668;DHT22;27356;50.920;5.350;2023-09-30T08:14:19;15.80;99.90
41668;DHT22;27356;50.920;5.350;2023-09-30T08:16:44;15.80;99.90
41668;DHT22;27356;50.920;5.350;2023-09-30T08:19:10;15.60;99.90
41668;DHT22;27356;50.920;5.350;2023-09-30T08:21:36;15.70;99.90
41668;DHT22;27356;50.920;5.350;2023-09-30T08:24:02;15.80;99.90
41668;DHT22;27356;50.920;5.350;2023-09-30T08:26:28;15.80;99.90
41668;DHT22;27356;50.920;5.350;2023-09-30T08:28:53;15.90;99.90
41668;DHT22;27356;50.920;5.350;2023-09-30T08:31:19;16.00;99.90
41668;DHT22;27356;50.920;5.350;2023-09-30T08:33:47;15.90;99.90
41668;DHT22;27356;50.920;5.350;2023-09-30T08:36:13;16.00;99.90
41668;DHT22;27356;50.920;5.350;2023-09-30T08:38:40;16.20;99.90
41668;DHT22;27356;50.920;5.350;2023-09-30T08:41:06;16.60;99.90
41668;DHT22;27356;50.920;5.350;2023-09-30T08:43:40;16.50;99.90
41668;DHT22;27356;50.920;5.350;2023-09-30T08:46:06;16.60;99.90
41668;DHT22;27356;50.920;5.350;2023-09-30T08:48:33;16.90;99.90
41668;DHT22;27356;50.920;5.350;2023-09-30T08:50:59;17.00;99.90
41668;DHT22;27356;50.920;5.350;2023-09-30T08:53:26;17.30;99.90
41668;DHT22;27356;50.920;5.350;2023-09-30T08:55:56;17.40;99.90
41668;DHT22;27356;50.920;5.350;2023-09-30T08:58:26;17.40;99.90
41668;DHT22;27356;50.920;5.350;2023-09-30T09:00:52;17.40;99.90
41668;DHT22;27356;50.920;5.350;2023-09-30T09:03:21;17.00;99.90
41668;DHT22;27356;50.920;5.350;2023-09-30T09:05:56;17.40;99.90
41668;DHT22;27356;50.920;5.350;2023-09-30T09:08:26;17.50;99.90
41668;DHT22;27356;50.920;5.350;2023-09-30T09:11:00;17.60;99.90
41668;DHT22;27356;50.920;5.350;2023-09-30T09:13:26;18.00;99.90
41668;DHT22;27356;50.920;5.350;2023-09-30T09:16:09;18.20;99.90
41668;DHT22;27356;50.920;5.350;2023-09-30T09:18:35;18.40;99.90
41668;DHT22;27356;50.920;5.350;2023-09-30T09:21:18;18.00;99.90
41668;DHT22;27356;50.920;5.350;2023-09-30T09:23:47;18.10;99.90
41668;DHT22;27356;50.920;5.350;2023-09-30T09:26:24;18.40;99.90
41668;DHT22;27356;50.920;5.350;2023-09-30T09:29:00;18.60;99.90
41668;DHT22;27356;50.920;5.350;2023-09-30T09:31:33;18.80;99.90
41668;DHT22;27356;50.920;5.350;2023-09-30T09:34:01;19.10;99.90
41668;DHT22;27356;50.920;5.350;2023-09-30T09:36:43;19.10;99.90
41668;DHT22;27356;50.920;5.350;2023-09-30T09:39:10;19.00;99.90
41668;DHT22;27356;50.920;5.350;2023-09-30T09:41:54;18.80;99.90
41668;DHT22;27356;50.920;5.350;2023-09-30T09:44:23;19.00;99.90
41668;DHT22;27356;50.920;5.350;2023-09-30T09:46:52;19.50;99.90
41668;DHT22;27356;50.920;5.350;2023-09-30T09:49:19;19.70;99.90
41668;DHT22;27356;50.920;5.350;2023-09-30T09:51:46;19.60;99.90
41668;DHT22;27356;50.920;5.350;2023-09-30T09:54:12;19.80;99.90
41668;DHT22;27356;50.920;5.350;2023-09-30T09:56:39;19.70;99.90
41668;DHT22;27356;50.920;5.350;2023-09-30T09:59:05;19.90;99.90
41668;DHT22;27356;50.920;5.350;2023-09-30T10:01:33;19.70;99.90
41668;DHT22;27356;50.920;5.350;2023-09-30T10:04:00;19.60;99.90
41668;DHT22;27356;50.920;5.350;2023-09-30T10:06:27;19.60;99.90
41668;DHT22;27356;50.920;5.350;2023-09-30T10:08:54;19.60;99.90
41668;DHT22;27356;50.920;5.350;2023-09-30T10:11:23;19.40;99.90
41668;DHT22;27356;50.920;5.350;2023-09-30T10:13:56;19.50;99.90
41668;DHT22;27356;50.920;5.350;2023-09-30T10:19:16;19.70;99.90
41668;DHT22;27356;50.920;5.350;2023-09-30T10:24:49;20.30;99.90
41668;DHT22;27356;50.920;5.350;2023-09-30T10:30:05;20.60;99.90
41668;DHT22;27356;50.920;5.350;2023-09-30T10:40:48;20.40;99.90
41668;DHT22;27356;50.920;5.350;2023-09-30T10:43:33;20.40;99.90
41668;DHT22;27356;50.920;5.350;2023-09-30T10:46:01;20.50;99.90
41668;DHT22;27356;50.920;5.350;2023-09-30T10:51:11;21.10;99.90
41668;DHT22;27356;50.920;5.350;2023-09-30T10:53:48;20.90;99.90
41668;DHT22;27356;50.920;5.350;2023-09-30T10:56:15;20.90;99.90
41668;DHT22;27356;50.920;5.350;2023-09-30T10:58:51;20.60;99.90
41668;DHT22;27356;50.920;5.350;2023-09-30T11:01:19;20.70;99.90
41668;DHT22;27356;50.920;5.350;2023-09-30T11:03:46;20.60;99.90
41668;DHT22;27356;50.920;5.350;2023-09-30T11:06:13;20.70;99.90
41668;DHT22;27356;50.920;5.350;2023-09-30T11:08:46;20.50;99.90
41668;DHT22;27356;50.920;5.350;2023-09-30T11:11:13;20.50;99.90
41668;DHT22;27356;50.920;5.350;2023-09-30T11:13:47;20.50;99.90
41668;DHT22;27356;50.920;5.350;2023-09-30T11:16:12;20.50;99.90
41668;DHT22;27356;50.920;5.350;2023-09-30T11:18:38;20.70;99.90
41668;DHT22;27356;50.920;5.350;2023-09-30T11:21:06;20.80;99.90
41668;DHT22;27356;50.920;5.350;2023-09-30T11:23:33;21.00;99.90
41668;DHT22;27356;50.920;5.350;2023-09-30T11:25:58;20.80;99.90
41668;DHT22;27356;50.920;5.350;2023-09-30T11:28:53;20.60;99.90
41668;DHT22;27356;50.920;5.350;2023-09-30T11:31:19;20.60;99.90
41668;DHT22;27356;50.920;5.350;2023-09-30T11:33:52;20.70;99.90
41668;DHT22;27356;50.920;5.350;2023-09-30T11:36:19;20.40;99.90
41668;DHT22;27356;50.920;5.350;2023-09-30T11:38:47;20.60;99.90
41668;DHT22;27356;50.920;5.350;2023-09-30T11:41:13;20.60;99.90
41668;DHT22;27356;50.920;5.350;2023-09-30T11:43:57;20.60;99.90
41668;DHT22;27356;50.920;5.350;2023-09-30T11:46:24;20.70;99.90
41668;DHT22;27356;50.920;5.350;2023-09-30T11:48:57;20.80;99.90
41668;DHT22;27356;50.920;5.350;2023-09-30T11:51:26;21.00;99.90
41668;DHT22;27356;50.920;5.350;2023-09-30T11:53:53;21.10;99.90
41668;DHT22;27356;50.920;5.350;2023-09-30T11:56:20;20.60;99.90
41668;DHT22;27356;50.920;5.350;2023-09-30T11:58:50;20.80;99.90
41668;DHT22;27356;50.920;5.350;2023-09-30T12:01:16;21.00;99.90
41668;DHT22;27356;50.920;5.350;2023-09-30T12:03:42;20.80;99.90
41668;DHT22;27356;50.920;5.350;2023-09-30T12:06:08;21.00;99.90
41668;DHT22;27356;50.920;5.350;2023-09-30T12:08:39;21.00;99.90
41668;DHT22;27356;50.920;5.350;2023-09-30T12:11:05;21.00;99.90
41668;DHT22;27356;50.920;5.350;2023-09-30T12:13:31;21.20;99.90
41668;DHT22;27356;50.920;5.350;2023-09-30T12:15:57;21.00;99.90
41668;DHT22;27356;50.920;5.350;2023-09-30T12:18:23;20.80;99.90
41668;DHT22;27356;50.920;5.350;2023-09-30T12:20:52;20.70;99.90
41668;DHT22;27356;50.920;5.350;2023-09-30T12:23:21;20.80;99.90
41668;DHT22;27356;50.920;5.350;2023-09-30T12:25:47;20.80;99.90
41668;DHT22;27356;50.920;5.350;2023-09-30T12:28:13;20.70;99.90
41668;DHT22;27356;50.920;5.350;2023-09-30T12:30:40;20.50;99.90
41668;DHT22;27356;50.920;5.350;2023-09-30T12:33:08;20.30;99.90
41668;DHT22;27356;50.920;5.350;2023-09-30T12:35:33;20.20;99.90
41668;DHT22;27356;50.920;5.350;2023-09-30T12:37:59;20.50;99.90
41668;DHT22;27356;50.920;5.350;2023-09-30T12:40:25;20.60;99.90
41668;DHT22;27356;50.920;5.350;2023-09-30T12:42:51;20.70;99.90
41668;DHT22;27356;50.920;5.350;2023-09-30T12:45:17;20.80;99.90
41668;DHT22;27356;50.920;5.350;2023-09-30T12:47:44;21.00;99.90
41668;DHT22;27356;50.920;5.350;2023-09-30T12:50:10;21.20;99.90
41668;DHT22;27356;50.920;5.350;2023-09-30T12:52:36;21.10;99.90
41668;DHT22;27356;50.920;5.350;2023-09-30T12:55:03;21.00;99.90
41668;DHT22;27356;50.920;5.350;2023-09-30T12:57:30;21.20;99.90
41668;DHT22;27356;50.920;5.350;2023-09-30T12:59:56;21.20;99.90
41668;DHT22;27356;50.920;5.350;2023-09-30T13:02:23;21.30;99.90
41668;DHT22;27356;50.920;5.350;2023-09-30T13:04:49;21.50;99.90
41668;DHT22;27356;50.920;5.350;2023-09-30T13:07:14;21.40;99.90
41668;DHT22;27356;50.920;5.350;2023-09-30T13:09:41;21.80;99.90
41668;DHT22;27356;50.920;5.350;2023-09-30T13:12:08;21.80;99.90
41668;DHT22;27356;50.920;5.350;2023-09-30T13:14:34;21.80;99.90
41668;DHT22;27356;50.920;5.350;2023-09-30T13:17:00;22.00;99.90
41668;DHT22;27356;50.920;5.350;2023-09-30T13:19:26;22.00;99.90
41668;DHT22;27356;50.920;5.350;2023-09-30T13:21:52;22.10;99.90
41668;DHT22;27356;50.920;5.350;2023-09-30T13:24:21;22.20;99.90
41668;DHT22;27356;50.920;5.350;2023-09-30T13:26:47;22.30;99.60
41668;DHT22;27356;50.920;5.350;2023-09-30T13:29:14;22.20;99.20
41668;DHT22;27356;50.920;5.350;2023-09-30T13:31:42;22.30;99.90
41668;DHT22;27356;50.920;5.350;2023-09-30T13:34:08;22.60;99.90
41668;DHT22;27356;50.920;5.350;2023-09-30T13:36:34;22.50;99.00
41668;DHT22;27356;50.920;5.350;2023-09-30T13:38:59;22.70;98.30
41668;DHT22;27356;50.920;5.350;2023-09-30T13:41:26;22.60;98.20
41668;DHT22;27356;50.920;5.350;2023-09-30T13:43:52;22.40;98.70
41668;DHT22;27356;50.920;5.350;2023-09-30T13:46:18;22.20;98.70
41668;DHT22;27356;50.920;5.350;2023-09-30T13:48:44;22.30;99.70
41668;DHT22;27356;50.920;5.350;2023-09-30T13:51:10;22.20;98.40
41668;DHT22;27356;50.920;5.350;2023-09-30T13:53:39;22.30;99.80
41668;DHT22;27356;50.920;5.350;2023-09-30T13:56:06;22.50;99.60
41668;DHT22;27356;50.920;5.350;2023-09-30T13:58:32;22.40;98.50
41668;DHT22;27356;50.920;5.350;2023-09-30T14:00:58;22.30;98.30
41668;DHT22;27356;50.920;5.350;2023-09-30T14:03:23;22.30;99.00
41668;DHT22;27356;50.920;5.350;2023-09-30T14:05:54;22.40;98.30
41668;DHT22;27356;50.920;5.350;2023-09-30T14:08:19;22.40;97.90
41668;DHT22;27356;50.920;5.350;2023-09-30T14:10:45;22.30;98.20
41668;DHT22;27356;50.920;5.350;2023-09-30T14:13:11;22.30;97.50
41668;DHT22;27356;50.920;5.350;2023-09-30T14:15:37;22.20;98.20
41668;DHT22;27356;50.920;5.350;2023-09-30T14:18:04;21.90;98.90
41668;DHT22;27356;50.920;5.350;2023-09-30T14:20:30;22.00;99.50
41668;DHT22;27356;50.920;5.350;2023-09-30T14:22:55;22.10;99.00
41668;DHT22;27356;50.920;5.350;2023-09-30T14:25:22;22.20;98.20
41668;DHT22;27356;50.920;5.350;2023-09-30T14:27:48;22.00;97.60
41668;DHT22;27356;50.920;5.350;2023-09-30T14:30:15;22.00;98.60
41668;DHT22;27356;50.920;5.350;2023-09-30T14:32:41;22.10;97.30
41668;DHT22;27356;50.920;5.350;2023-09-30T14:35:07;22.10;97.60
41668;DHT22;27356;50.920;5.350;2023-09-30T14:37:35;22.20;96.90
41668;DHT22;27356;50.920;5.350;2023-09-30T14:40:01;22.00;97.70
41668;DHT22;27356;50.920;5.350;2023-09-30T14:42:26;21.80;98.10
41668;DHT22;27356;50.920;5.350;2023-09-30T14:44:53;21.60;98.70
41668;DHT22;27356;50.920;5.350;2023-09-30T14:47:18;21.50;99.20
41668;DHT22;27356;50.920;5.350;2023-09-30T14:49:44;21.80;98.70
41668;DHT22;27356;50.920;5.350;2023-09-30T14:52:10;21.80;98.80
41668;DHT22;27356;50.920;5.350;2023-09-30T14:54:35;21.90;99.00
41668;DHT22;27356;50.920;5.350;2023-09-30T14:57:01;21.80;98.50
41668;DHT22;27356;50.920;5.350;2023-09-30T14:59:27;21.90;98.00
41668;DHT22;27356;50.920;5.350;2023-09-30T15:01:53;21.70;97.30
41668;DHT22;27356;50.920;5.350;2023-09-30T15:04:18;21.70;96.50
41668;DHT22;27356;50.920;5.350;2023-09-30T15:06:44;21.70;97.20
41668;DHT22;27356;50.920;5.350;2023-09-30T15:09:11;21.80;97.70
41668;DHT22;27356;50.920;5.350;2023-09-30T15:11:37;21.40;97.60
41668;DHT22;27356;50.920;5.350;2023-09-30T15:14:03;21.10;97.70
41668;DHT22;27356;50.920;5.350;2023-09-30T15:16:32;21.10;98.60
41668;DHT22;27356;50.920;5.350;2023-09-30T15:18:58;21.10;97.90
41668;DHT22;27356;50.920;5.350;2023-09-30T15:21:24;21.00;97.70
41668;DHT22;27356;50.920;5.350;2023-09-30T15:23:50;20.90;97.50
41668;DHT22;27356;50.920;5.350;2023-09-30T15:26:16;20.90;97.50
41668;DHT22;27356;50.920;5.350;2023-09-30T15:28:42;21.00;97.30
41668;DHT22;27356;50.920;5.350;2023-09-30T15:31:09;20.90;97.40
41668;DHT22;27356;50.920;5.350;2023-09-30T15:33:36;20.80;98.30
41668;DHT22;27356;50.920;5.350;2023-09-30T15:36:12;20.70;97.60
41668;DHT22;27356;50.920;5.350;2023-09-30T15:38:39;20.70;97.50
41668;DHT22;27356;50.920;5.350;2023-09-30T15:41:04;20.70;97.70
41668;DHT22;27356;50.920;5.350;2023-09-30T15:43:31;20.70;97.90
41668;DHT22;27356;50.920;5.350;2023-09-30T15:45:58;20.70;98.30
41668;DHT22;27356;50.920;5.350;2023-09-30T15:48:24;20.70;98.10
41668;DHT22;27356;50.920;5.350;2023-09-30T15:50:50;20.60;98.40
41668;DHT22;27356;50.920;5.350;2023-09-30T15:53:16;20.30;99.10